createdAt,value
2019-03-03T00:02:47.858Z,6.30
2019-03-03T00:07:47.425Z,6.40
2019-03-03T00:12:47.069Z,6.40
2019-03-03T00:17:46.619Z,6.40
2019-03-03T00:22:46.221Z,6.50
2019-03-03T00:27:45.791Z,6.40
2019-03-03T00:32:45.542Z,6.30
2019-03-03T00:37:58.634Z,6.40
2019-03-03T00:43:14.163Z,6.30
2019-03-03T00:48:20.135Z,6.30
2019-03-03T00:53:39.517Z,6.40
2019-03-03T00:59:13.427Z,6.30
2019-03-03T01:04:24.839Z,6.40
2019-03-03T01:09:44.005Z,6.50
2019-03-03T01:15:01.887Z,6.70
2019-03-03T01:20:07.343Z,6.60
2019-03-03T01:25:06.969Z,6.70
2019-03-03T01:30:09.450Z,6.60
2019-03-03T01:35:09.603Z,6.70
2019-03-03T01:40:09.527Z,6.60
2019-03-03T01:45:10.886Z,6.60
2019-03-03T01:50:10.731Z,6.60
2019-03-03T01:55:10.935Z,6.70
2019-03-03T02:00:20.296Z,6.60
2019-03-03T02:05:20.109Z,6.70
2019-03-03T02:10:22.755Z,6.70
2019-03-03T02:15:22.765Z,6.70
2019-03-03T02:20:22.373Z,6.70
2019-03-03T02:25:22.196Z,6.80
2019-03-03T02:30:21.843Z,6.90
2019-03-03T02:35:21.476Z,6.90
2019-03-03T02:40:21.087Z,6.90
2019-03-03T02:45:20.902Z,6.90
2019-03-03T02:50:20.928Z,7.00
2019-03-03T02:55:20.476Z,6.90
2019-03-03T03:00:21.026Z,7.00
2019-03-03T03:05:28.578Z,7.00
2019-03-03T03:10:40.430Z,7.00
2019-03-03T03:16:08.049Z,7.00
2019-03-03T03:21:18.993Z,7.00
2019-03-03T03:26:37.663Z,7.00
2019-03-03T03:31:57.304Z,7.10
2019-03-03T03:37:01.748Z,7.10
2019-03-03T03:42:13.319Z,7.20
2019-03-03T03:47:34.842Z,7.20
2019-03-03T03:52:56.521Z,7.20
2019-03-03T03:58:18.942Z,7.20
2019-03-03T04:03:36.356Z,7.20
2019-03-03T04:09:02.038Z,7.20
2019-03-03T04:14:10.700Z,7.30
2019-03-03T04:19:17.755Z,7.40
2019-03-03T04:24:35.178Z,7.40
2019-03-03T04:29:53.761Z,7.50
2019-03-03T04:34:59.137Z,7.50
2019-03-03T04:40:04.883Z,7.60
2019-03-03T04:45:24.165Z,7.70
2019-03-03T04:50:42.822Z,7.80
2019-03-03T04:55:54.854Z,7.80
2019-03-03T05:01:19.653Z,7.80
2019-03-03T05:06:31.574Z,7.90
2019-03-03T05:12:25.831Z,8.00
2019-03-03T05:17:44.417Z,8.00
2019-03-03T05:22:43.938Z,8.00
2019-03-03T05:27:43.487Z,8.10
2019-03-03T05:32:43.028Z,8.20
2019-03-03T05:37:42.574Z,8.20
2019-03-03T05:42:42.114Z,8.20
2019-03-03T05:47:41.646Z,8.30
2019-03-03T05:52:41.198Z,8.30
2019-03-03T05:57:41.802Z,8.40
2019-03-03T06:02:41.395Z,8.40
2019-03-03T06:07:40.945Z,8.40
2019-03-03T06:12:40.479Z,8.50
2019-03-03T06:17:40.015Z,8.50
2019-03-03T06:22:39.661Z,8.60
2019-03-03T06:27:39.203Z,8.70
2019-03-03T06:32:38.756Z,8.80
2019-03-03T06:37:38.415Z,8.90
2019-03-03T06:42:38.107Z,9.00
2019-03-03T06:47:37.636Z,9.10
2019-03-03T06:52:37.165Z,9.20
2019-03-03T06:57:36.955Z,9.20
2019-03-03T07:02:36.497Z,9.20
2019-03-03T07:07:36.035Z,9.30
2019-03-03T07:12:35.676Z,9.40
2019-03-03T07:17:35.201Z,9.50
2019-03-03T07:22:34.805Z,9.60
2019-03-03T07:27:34.343Z,9.60
2019-03-03T07:32:35.513Z,9.80
2019-03-03T07:37:35.059Z,9.80
2019-03-03T07:42:34.686Z,9.90
2019-03-03T07:47:34.455Z,9.90
2019-03-03T07:52:34.000Z,10.00
2019-03-03T07:57:33.930Z,10.10
2019-03-03T08:02:33.484Z,10.20
2019-03-03T08:07:33.044Z,10.20
2019-03-03T08:12:32.619Z,10.50
2019-03-03T08:17:32.155Z,10.40
2019-03-03T08:22:31.768Z,10.50
2019-03-03T08:27:31.324Z,10.70
2019-03-03T08:32:31.007Z,10.70
2019-03-03T08:37:30.552Z,10.80
2019-03-03T08:42:37.183Z,11.00
2019-03-03T08:47:53.343Z,11.00
2019-03-03T08:53:10.058Z,11.00
2019-03-03T08:58:22.501Z,10.90
2019-03-03T09:03:46.659Z,11.00
2019-03-03T09:09:14.377Z,10.90
2019-03-03T09:14:33.119Z,11.00
2019-03-03T09:19:40.925Z,11.10
2019-03-03T09:24:49.767Z,11.10
2019-03-03T09:30:11.437Z,11.10
2019-03-03T09:35:29.173Z,11.20
2019-03-03T09:40:42.402Z,11.20
2019-03-03T09:45:50.834Z,11.20
2019-03-03T09:50:57.424Z,11.30
2019-03-03T09:56:14.774Z,11.40
2019-03-03T10:01:37.106Z,11.50
2019-03-03T10:06:52.092Z,11.50
2019-03-03T10:12:16.834Z,11.50
2019-03-03T10:17:38.362Z,11.50
2019-03-03T10:22:55.490Z,11.50
2019-03-03T10:28:01.455Z,11.60
2019-03-03T10:33:35.683Z,11.60
2019-03-03T10:38:51.081Z,11.70
2019-03-03T10:43:58.295Z,11.60
2019-03-03T10:49:17.937Z,11.60
2019-03-03T10:54:39.929Z,11.60
2019-03-03T10:59:58.595Z,11.50
2019-03-03T11:05:17.503Z,11.50
2019-03-03T11:10:31.234Z,11.60
2019-03-03T11:15:46.107Z,11.70
2019-03-03T11:21:14.239Z,11.80
2019-03-03T11:26:23.146Z,11.80
2019-03-03T11:31:49.281Z,11.90
2019-03-03T11:36:57.002Z,11.90
2019-03-03T11:42:05.928Z,11.90
2019-03-03T11:47:22.238Z,12.00
2019-03-03T11:52:50.932Z,12.10
2019-03-03T11:58:07.778Z,12.00
2019-03-03T12:03:36.186Z,11.90
2019-03-03T12:08:42.861Z,11.80
2019-03-03T12:14:06.458Z,11.80
2019-03-03T12:19:24.124Z,11.80
2019-03-03T12:24:29.363Z,11.70
2019-03-03T12:29:42.285Z,11.80
2019-03-03T12:36:54.072Z,11.80
2019-03-03T12:40:36.983Z,11.90
2019-03-03T12:45:59.195Z,11.80
2019-03-03T12:51:21.433Z,11.70
2019-03-03T12:56:40.015Z,11.70
2019-03-03T13:02:06.976Z,11.80
2019-03-03T13:07:24.651Z,11.90
2019-03-03T13:12:42.000Z,11.90
2019-03-03T13:18:08.178Z,12.00
2019-03-03T13:23:17.258Z,12.00
2019-03-03T13:28:35.664Z,11.90
2019-03-03T13:33:52.447Z,11.90
2019-03-03T13:39:05.069Z,12.00
2019-03-03T13:44:06.343Z,12.10
2019-03-03T13:49:05.891Z,12.10
2019-03-03T13:54:06.548Z,12.20
2019-03-03T13:59:06.963Z,12.20
2019-03-03T14:04:06.678Z,12.30
2019-03-03T14:09:09.319Z,12.30
2019-03-03T14:14:08.997Z,12.50
2019-03-03T14:19:08.539Z,12.40
2019-03-03T14:24:08.101Z,12.30
2019-03-03T14:29:07.700Z,12.20
2019-03-03T14:34:07.558Z,12.10
2019-03-03T14:39:10.286Z,12.00
2019-03-03T14:44:10.940Z,11.90
2019-03-03T14:49:10.531Z,12.00
2019-03-03T14:54:10.194Z,11.90
2019-03-03T14:59:09.815Z,11.80
2019-03-03T15:04:09.539Z,11.70
2019-03-03T15:09:20.479Z,11.50
2019-03-03T15:14:20.750Z,11.40
2019-03-03T15:19:20.353Z,11.30
2019-03-03T15:24:19.959Z,11.20
2019-03-03T15:29:19.503Z,11.20
2019-03-03T15:34:19.032Z,11.20
2019-03-03T15:39:18.664Z,11.10
2019-03-03T15:44:18.285Z,11.00
2019-03-03T15:49:17.883Z,10.90
2019-03-03T15:54:17.421Z,10.90
2019-03-03T15:59:16.977Z,10.80
2019-03-03T16:04:16.536Z,10.80
2019-03-03T16:09:16.493Z,10.70
2019-03-03T16:14:16.044Z,10.70
2019-03-03T16:19:15.826Z,10.70
2019-03-03T16:24:15.374Z,10.60
2019-03-03T16:29:14.911Z,10.60
2019-03-03T16:34:14.537Z,10.60
2019-03-03T16:39:14.259Z,10.60
2019-03-03T16:44:13.817Z,10.50
2019-03-03T16:49:13.379Z,10.50
2019-03-03T16:54:12.909Z,10.50
2019-03-03T16:59:12.460Z,10.40
2019-03-03T17:04:12.004Z,10.40
2019-03-03T17:09:12.451Z,10.50
2019-03-03T17:14:12.266Z,10.50
2019-03-03T17:19:11.806Z,10.50
2019-03-03T17:24:11.370Z,10.40
2019-03-03T17:29:10.987Z,10.40
2019-03-03T17:34:13.230Z,10.40
2019-03-03T17:39:11.865Z,10.50
2019-03-03T17:44:11.414Z,10.60
2019-03-03T17:49:10.983Z,10.50
2019-03-03T17:54:10.525Z,10.50
2019-03-03T17:59:10.118Z,10.40
2019-03-03T18:04:09.706Z,10.30
2019-03-03T18:09:09.973Z,10.30
2019-03-03T18:14:10.688Z,10.50
2019-03-03T18:19:10.231Z,10.50
2019-03-03T18:24:09.847Z,10.50
2019-03-03T18:29:09.380Z,10.50
2019-03-03T18:34:08.931Z,10.60
2019-03-03T18:39:10.030Z,10.50
2019-03-03T18:44:09.840Z,10.50
2019-03-03T18:49:09.394Z,10.50
2019-03-03T18:54:08.933Z,10.60
2019-03-03T18:59:08.467Z,10.70
2019-03-03T19:04:08.140Z,10.70
2019-03-03T19:09:10.428Z,10.70
2019-03-03T19:14:10.410Z,10.70
2019-03-03T19:19:09.954Z,10.70
2019-03-03T19:24:09.472Z,10.70
2019-03-03T19:29:09.100Z,10.70
2019-03-03T19:34:08.715Z,10.70
2019-03-03T19:39:08.242Z,10.80
2019-03-03T19:44:11.244Z,10.80
2019-03-03T19:49:10.702Z,10.80
2019-03-03T19:54:10.395Z,10.80
2019-03-03T19:59:09.934Z,10.80
2019-03-03T20:04:09.465Z,10.80
2019-03-03T20:09:09.127Z,10.80
2019-03-03T20:14:10.294Z,10.80
2019-03-03T20:19:09.827Z,10.80
2019-03-03T20:24:09.359Z,10.80
2019-03-03T20:29:08.965Z,10.80
2019-03-03T20:34:08.509Z,10.80
2019-03-03T20:39:08.299Z,10.90
2019-03-03T20:44:08.427Z,10.90
2019-03-03T20:49:07.980Z,10.90
2019-03-03T20:54:08.485Z,10.90
2019-03-03T20:59:08.031Z,11.00
2019-03-03T21:04:07.561Z,11.00
2019-03-03T21:09:07.908Z,11.00
2019-03-03T21:14:09.074Z,11.10
2019-03-03T21:19:08.613Z,11.00
2019-03-03T21:24:08.145Z,11.10
2019-03-03T21:29:07.702Z,11.10
2019-03-03T21:34:07.327Z,11.10
2019-03-03T21:39:08.785Z,11.10
2019-03-03T21:44:09.093Z,11.10
2019-03-03T21:49:08.683Z,11.10
2019-03-03T21:54:08.243Z,11.00
2019-03-03T21:59:08.144Z,11.10
2019-03-03T22:04:07.745Z,11.20
2019-03-03T22:09:08.304Z,11.10
2019-03-03T22:14:09.454Z,11.10
2019-03-03T22:19:08.998Z,11.00
2019-03-03T22:24:08.525Z,11.00
2019-03-03T22:29:08.074Z,10.90
2019-03-03T22:34:07.720Z,10.80
2019-03-03T22:39:08.099Z,10.80
2019-03-03T22:44:08.030Z,10.80
2019-03-03T22:49:07.569Z,10.70
2019-03-03T22:54:07.223Z,10.70
2019-03-03T22:59:06.771Z,10.70
2019-03-03T23:04:21.138Z,10.70
2019-03-03T23:09:57.239Z,10.60
2019-03-03T23:15:04.725Z,10.70
2019-03-03T23:20:27.629Z,10.80
2019-03-03T23:25:49.895Z,10.80
2019-03-03T23:30:50.247Z,10.80
2019-03-03T23:35:49.858Z,10.90
2019-03-03T23:40:51.224Z,11.00
2019-03-03T23:45:50.855Z,11.00
2019-03-03T23:50:50.402Z,11.10
2019-03-03T23:55:49.934Z,11.10
